KLOU/LOU METAR and TAF weather

Enter ICAO airport designator
Station Type Date Time Source
KLOU METAR 2018/12/13 08:23 UTC NOAA

KLOU 130823Z AUTO 21006KT 10SM OVC029 11/03 A3007 RMK AO2 T01060028


Station Type Date Time Source
KLOU Decoded METAR 2018/12/13 08:23 UTC NOAA

BOWMAN FIELD, KY, United States (KLOU) 38-14N 085-40W 164M
Dec 13, 2018 - 03:23 AM EST / 2018.12.13 0823 UTC
Wind: from the SSW (210 degrees) at 7 MPH (6 KT):0
Visibility: 10 mile(s):0
Sky conditions: overcast
Temperature: 51.1 F (10.6 C)
Dew Point: 37.0 F (2.8 C)
Relative Humidity: 58%
Pressure (altimeter): 30.07 in. Hg (1018 hPa)
ob: KLOU 130823Z AUTO 21006KT 10SM OVC029 11/03 A3007 RMK AO2 T01060028
cycle: 8

Station Type Date Time Source
KLOU TAF UTC NOAA

Error!


Example: see airport list